sensor_id;sensor_type;location;lat;lon;timestamp;pressure;altitude;pressure_sealevel;temperature;humidity
29315;BME280;16320;53.954;9.506;2023-02-19T00:00:56;101526.09;;;4.05;100.00
29315;BME280;16320;53.954;9.506;2023-02-19T00:04:05;101523.47;;;4.08;100.00
29315;BME280;16320;53.954;9.506;2023-02-19T00:07:10;101527.81;;;4.06;100.00
29315;BME280;16320;53.954;9.506;2023-02-19T00:10:14;101521.78;;;4.02;100.00
29315;BME280;16320;53.954;9.506;2023-02-19T00:13:19;101524.38;;;4.04;100.00
29315;BME280;16320;53.954;9.506;2023-02-19T00:16:38;101523.56;;;4.00;100.00
29315;BME280;16320;53.954;9.506;2023-02-19T00:19:42;101526.09;;;4.05;100.00
29315;BME280;16320;53.954;9.506;2023-02-19T00:22:47;101535.69;;;4.00;100.00
29315;BME280;16320;53.954;9.506;2023-02-19T00:25:51;101532.22;;;3.99;100.00
29315;BME280;16320;53.954;9.506;2023-02-19T00:28:57;101533.09;;;4.00;100.00
29315;BME280;16320;53.954;9.506;2023-02-19T00:32:01;101539.16;;;3.99;100.00
29315;BME280;16320;53.954;9.506;2023-02-19T00:35:06;101542.63;;;3.99;100.00
29315;BME280;16320;53.954;9.506;2023-02-19T00:38:10;101548.72;;;3.97;100.00
29315;BME280;16320;53.954;9.506;2023-02-19T00:41:16;101534.84;;;3.98;100.00
29315;BME280;16320;53.954;9.506;2023-02-19T00:44:23;101534.84;;;3.96;100.00
29315;BME280;16320;53.954;9.506;2023-02-19T00:47:28;101539.22;;;3.94;100.00
29315;BME280;16320;53.954;9.506;2023-02-19T00:50:33;101543.56;;;3.94;100.00
29315;BME280;16320;53.954;9.506;2023-02-19T00:53:37;101546.19;;;3.92;100.00
29315;BME280;16320;53.954;9.506;2023-02-19T00:56:41;101546.16;;;3.95;100.00
29315;BME280;16320;53.954;9.506;2023-02-19T00:59:46;101536.66;;;3.90;100.00
29315;BME280;16320;53.954;9.506;2023-02-19T01:02:50;101547.97;;;3.85;100.00
29315;BME280;16320;53.954;9.506;2023-02-19T01:05:55;101540.28;;;3.76;100.00
29315;BME280;16320;53.954;9.506;2023-02-19T01:08:59;101540.28;;;3.75;100.00
29315;BME280;16320;53.954;9.506;2023-02-19T01:12:06;101542.03;;;3.74;100.00
29315;BME280;16320;53.954;9.506;2023-02-19T01:15:10;101540.28;;;3.76;100.00
29315;BME280;16320;53.954;9.506;2023-02-19T01:18:15;101539.44;;;3.74;100.00
29315;BME280;16320;53.954;9.506;2023-02-19T01:21:24;101536.88;;;3.71;100.00
29315;BME280;16320;53.954;9.506;2023-02-19T01:24:29;101534.28;;;3.71;100.00
29315;BME280;16320;53.954;9.506;2023-02-19T01:27:33;101541.19;;;3.74;100.00
29315;BME280;16320;53.954;9.506;2023-02-19T01:30:38;101531.63;;;3.74;100.00
29315;BME280;16320;53.954;9.506;2023-02-19T01:33:48;101535.06;;;3.76;100.00
29315;BME280;16320;53.954;9.506;2023-02-19T01:36:53;101536.84;;;3.74;100.00
29315;BME280;16320;53.954;9.506;2023-02-19T01:39:57;101533.38;;;3.74;100.00
29315;BME280;16320;53.954;9.506;2023-02-19T01:43:02;101531.63;;;3.77;100.00
29315;BME280;16320;53.954;9.506;2023-02-19T01:46:06;101528.06;;;3.84;100.00
29315;BME280;16320;53.954;9.506;2023-02-19T01:49:34;101524.63;;;3.82;100.00
29315;BME280;16320;53.954;9.506;2023-02-19T01:52:41;101528.13;;;3.78;100.00
29315;BME280;16320;53.954;9.506;2023-02-19T01:55:47;101525.50;;;3.80;100.00
29315;BME280;16320;53.954;9.506;2023-02-19T01:58:53;101509.91;;;3.81;100.00
29315;BME280;16320;53.954;9.506;2023-02-19T02:01:58;101512.53;;;3.78;100.00
29315;BME280;16320;53.954;9.506;2023-02-19T02:05:03;101511.72;;;3.75;100.00
29315;BME280;16320;53.954;9.506;2023-02-19T02:08:12;101506.59;;;3.67;100.00
29315;BME280;16320;53.954;9.506;2023-02-19T02:11:36;101504.88;;;3.67;100.00
29315;BME280;16320;53.954;9.506;2023-02-19T02:14:45;101504.06;;;3.61;100.00
29315;BME280;16320;53.954;9.506;2023-02-19T02:17:59;101495.41;;;3.59;100.00
29315;BME280;16320;53.954;9.506;2023-02-19T02:32:39;101479.09;;;3.46;100.00
29315;BME280;16320;53.954;9.506;2023-02-19T02:39:08;101473.97;;;3.40;100.00
29315;BME280;16320;53.954;9.506;2023-02-19T02:42:14;101479.16;;;3.40;100.00
29315;BME280;16320;53.954;9.506;2023-02-19T02:45:33;101467.81;;;3.48;100.00
29315;BME280;16320;53.954;9.506;2023-02-19T02:51:49;101447.91;;;3.46;100.00
29315;BME280;16320;53.954;9.506;2023-02-19T02:54:55;101449.66;;;3.45;100.00
29315;BME280;16320;53.954;9.506;2023-02-19T02:58:07;101455.72;;;3.44;100.00
29315;BME280;16320;53.954;9.506;2023-02-19T03:01:42;101454.09;;;3.34;100.00
29315;BME280;16320;53.954;9.506;2023-02-19T03:05:21;101453.31;;;3.26;100.00
29315;BME280;16320;53.954;9.506;2023-02-19T03:09:04;101454.25;;;3.22;100.00
29315;BME280;16320;53.954;9.506;2023-02-19T03:12:14;101453.50;;;3.09;100.00
29315;BME280;16320;53.954;9.506;2023-02-19T03:15:53;101462.97;;;3.13;100.00
29315;BME280;16320;53.954;9.506;2023-02-19T03:19:22;101449.16;;;3.09;100.00
29315;BME280;16320;53.954;9.506;2023-02-19T03:22:32;101456.09;;;3.07;100.00
29315;BME280;16320;53.954;9.506;2023-02-19T03:25:39;101465.56;;;3.13;100.00
29315;BME280;16320;53.954;9.506;2023-02-19T03:29:16;101457.81;;;3.05;100.00
29315;BME280;16320;53.954;9.506;2023-02-19T03:32:31;101465.63;;;3.05;100.00
29315;BME280;16320;53.954;9.506;2023-02-19T03:35:45;101459.59;;;3.03;100.00
29315;BME280;16320;53.954;9.506;2023-02-19T03:39:05;101456.13;;;3.04;100.00
29315;BME280;16320;53.954;9.506;2023-02-19T03:42:48;101460.53;;;2.96;100.00
29315;BME280;16320;53.954;9.506;2023-02-19T03:46:13;101459.63;;;2.97;100.00
29315;BME280;16320;53.954;9.506;2023-02-19T03:53:27;101462.31;;;2.91;100.00
29315;BME280;16320;53.954;9.506;2023-02-19T03:56:58;101463.19;;;2.84;100.00
29315;BME280;16320;53.954;9.506;2023-02-19T04:03:28;101473.69;;;2.71;100.00
29315;BME280;16320;53.954;9.506;2023-02-19T04:06:35;101470.22;;;2.69;100.00
29315;BME280;16320;53.954;9.506;2023-02-19T04:09:45;101484.91;;;2.72;100.00
29315;BME280;16320;53.954;9.506;2023-02-19T04:12:57;101489.28;;;2.65;100.00
29315;BME280;16320;53.954;9.506;2023-02-19T04:16:09;101494.50;;;2.61;100.00
29315;BME280;16320;53.954;9.506;2023-02-19T04:19:19;101506.63;;;2.57;100.00
29315;BME280;16320;53.954;9.506;2023-02-19T04:22:24;101509.19;;;2.63;100.00
29315;BME280;16320;53.954;9.506;2023-02-19T04:25:30;101506.63;;;2.60;100.00
29315;BME280;16320;53.954;9.506;2023-02-19T04:28:37;101509.25;;;2.55;100.00
29315;BME280;16320;53.954;9.506;2023-02-19T04:31:42;101508.41;;;2.47;100.00
29315;BME280;16320;53.954;9.506;2023-02-19T04:34:46;101504.09;;;2.45;100.00
29315;BME280;16320;53.954;9.506;2023-02-19T04:37:50;101509.31;;;2.40;100.00
29315;BME280;16320;53.954;9.506;2023-02-19T04:40:55;101504.97;;;2.44;100.00
29315;BME280;16320;53.954;9.506;2023-02-19T04:43:59;101507.59;;;2.41;100.00
29315;BME280;16320;53.954;9.506;2023-02-19T04:47:03;101501.53;;;2.42;100.00
29315;BME280;16320;53.954;9.506;2023-02-19T04:50:08;101512.72;;;2.50;100.00
29315;BME280;16320;53.954;9.506;2023-02-19T04:53:13;101519.66;;;2.48;100.00
29315;BME280;16320;53.954;9.506;2023-02-19T04:56:17;101521.38;;;2.50;100.00
29315;BME280;16320;53.954;9.506;2023-02-19T04:59:21;101525.69;;;2.50;100.00
29315;BME280;16320;53.954;9.506;2023-02-19T05:02:26;101536.88;;;2.53;100.00
29315;BME280;16320;53.954;9.506;2023-02-19T05:05:30;101544.63;;;2.61;100.00
29315;BME280;16320;53.954;9.506;2023-02-19T05:08:35;101544.66;;;2.58;100.00
29315;BME280;16320;53.954;9.506;2023-02-19T05:11:39;101555.91;;;2.55;100.00
29315;BME280;16320;53.954;9.506;2023-02-19T05:14:43;101554.19;;;2.56;100.00
29315;BME280;16320;53.954;9.506;2023-02-19T05:17:48;101564.56;;;2.51;100.00
29315;BME280;16320;53.954;9.506;2023-02-19T05:20:53;101571.50;;;2.52;100.00
29315;BME280;16320;53.954;9.506;2023-02-19T05:23:57;101574.09;;;2.54;100.00
29315;BME280;16320;53.954;9.506;2023-02-19T05:27:01;101588.78;;;2.52;100.00
29315;BME280;16320;53.954;9.506;2023-02-19T05:30:06;101593.13;;;2.44;100.00
29315;BME280;16320;53.954;9.506;2023-02-19T05:33:11;101600.03;;;2.45;100.00
29315;BME280;16320;53.954;9.506;2023-02-19T05:36:19;101597.47;;;2.37;100.00
29315;BME280;16320;53.954;9.506;2023-02-19T05:39:23;101612.19;;;2.33;100.00
29315;BME280;16320;53.954;9.506;2023-02-19T05:42:27;101608.75;;;2.33;100.00
29315;BME280;16320;53.954;9.506;2023-02-19T05:45:33;101613.94;;;2.28;100.00
29315;BME280;16320;53.954;9.506;2023-02-19T05:48:37;101625.16;;;2.26;100.00
29315;BME280;16320;53.954;9.506;2023-02-19T05:51:41;101633.81;;;2.25;100.00
29315;BME280;16320;53.954;9.506;2023-02-19T05:54:46;101632.94;;;2.24;100.00
29315;BME280;16320;53.954;9.506;2023-02-19T05:57:50;101634.69;;;2.22;100.00
29315;BME280;16320;53.954;9.506;2023-02-19T06:00:56;101639.88;;;2.19;100.00
29315;BME280;16320;53.954;9.506;2023-02-19T06:04:00;101643.34;;;2.18;100.00
29315;BME280;16320;53.954;9.506;2023-02-19T06:07:05;101659.75;;;2.15;100.00
29315;BME280;16320;53.954;9.506;2023-02-19T06:10:10;101667.53;;;2.05;100.00
29315;BME280;16320;53.954;9.506;2023-02-19T06:13:15;101674.47;;;2.03;100.00
29315;BME280;16320;53.954;9.506;2023-02-19T06:16:21;101679.63;;;1.99;100.00
29315;BME280;16320;53.954;9.506;2023-02-19T06:19:25;101685.69;;;2.05;100.00
29315;BME280;16320;53.954;9.506;2023-02-19T06:22:29;101687.41;;;2.06;100.00
29315;BME280;16320;53.954;9.506;2023-02-19T06:25:33;101692.59;;;2.09;100.00
29315;BME280;16320;53.954;9.506;2023-02-19T06:28:39;101704.69;;;2.08;100.00
29315;BME280;16320;53.954;9.506;2023-02-19T06:31:44;101701.22;;;2.08;100.00
29315;BME280;16320;53.954;9.506;2023-02-19T06:34:49;101703.81;;;2.14;100.00
29315;BME280;16320;53.954;9.506;2023-02-19T06:37:53;101709.84;;;2.14;100.00
29315;BME280;16320;53.954;9.506;2023-02-19T06:41:04;101710.75;;;2.15;100.00
29315;BME280;16320;53.954;9.506;2023-02-19T06:44:09;101726.28;;;2.16;100.00
29315;BME280;16320;53.954;9.506;2023-02-19T06:47:13;101731.47;;;2.19;100.00
29315;BME280;16320;53.954;9.506;2023-02-19T06:50:17;101728.88;;;2.13;100.00
29315;BME280;16320;53.954;9.506;2023-02-19T06:53:23;101732.34;;;2.14;100.00
29315;BME280;16320;53.954;9.506;2023-02-19T06:56:34;101748.72;;;2.13;100.00
29315;BME280;16320;53.954;9.506;2023-02-19T06:59:38;101754.81;;;2.15;100.00
29315;BME280;16320;53.954;9.506;2023-02-19T07:02:43;101761.69;;;2.19;100.00
29315;BME280;16320;53.954;9.506;2023-02-19T07:05:48;101771.22;;;2.18;100.00
29315;BME280;16320;53.954;9.506;2023-02-19T07:08:54;101769.47;;;2.19;100.00
29315;BME280;16320;53.954;9.506;2023-02-19T07:11:59;101775.56;;;2.21;100.00
29315;BME280;16320;53.954;9.506;2023-02-19T07:15:04;101779.84;;;2.24;100.00
29315;BME280;16320;53.954;9.506;2023-02-19T07:18:08;101785.03;;;2.19;100.00
29315;BME280;16320;53.954;9.506;2023-02-19T07:21:15;101792.81;;;2.20;100.00
29315;BME280;16320;53.954;9.506;2023-02-19T07:24:19;101790.22;;;2.22;100.00
29315;BME280;16320;53.954;9.506;2023-02-19T07:27:25;101803.19;;;2.22;100.00
29315;BME280;16320;53.954;9.506;2023-02-19T07:30:29;101804.91;;;2.20;100.00
29315;BME280;16320;53.954;9.506;2023-02-19T07:33:34;101810.94;;;2.16;100.00
29315;BME280;16320;53.954;9.506;2023-02-19T07:36:38;101822.22;;;2.18;100.00
29315;BME280;16320;53.954;9.506;2023-02-19T07:39:43;101826.50;;;2.13;100.00
29315;BME280;16320;53.954;9.506;2023-02-19T07:42:47;101821.34;;;2.07;100.00
29315;BME280;16320;53.954;9.506;2023-02-19T07:45:52;101828.22;;;2.08;100.00
29315;BME280;16320;53.954;9.506;2023-02-19T07:48:58;101840.34;;;2.15;100.00
29315;BME280;16320;53.954;9.506;2023-02-19T07:52:02;101836.88;;;2.16;100.00
29315;BME280;16320;53.954;9.506;2023-02-19T07:55:07;101836.03;;;2.18;100.00
29315;BME280;16320;53.954;9.506;2023-02-19T07:58:11;101838.63;;;2.26;100.00
29315;BME280;16320;53.954;9.506;2023-02-19T08:01:19;101843.81;;;2.32;100.00
29315;BME280;16320;53.954;9.506;2023-02-19T08:04:46;101842.94;;;2.41;100.00
29315;BME280;16320;53.954;9.506;2023-02-19T08:07:50;101842.06;;;2.47;100.00
29315;BME280;16320;53.954;9.506;2023-02-19T08:11:00;101836.88;;;2.56;100.00
29315;BME280;16320;53.954;9.506;2023-02-19T08:14:25;101836.91;;;2.62;100.00
29315;BME280;16320;53.954;9.506;2023-02-19T08:17:29;101848.13;;;2.72;100.00
29315;BME280;16320;53.954;9.506;2023-02-19T08:20:34;101863.69;;;2.73;100.00
29315;BME280;16320;53.954;9.506;2023-02-19T08:23:39;101862.81;;;2.78;100.00
29315;BME280;16320;53.954;9.506;2023-02-19T08:26:43;101874.03;;;2.90;100.00
29315;BME280;16320;53.954;9.506;2023-02-19T08:29:48;101873.19;;;2.93;100.00
29315;BME280;16320;53.954;9.506;2023-02-19T08:32:53;101883.56;;;2.96;100.00
29315;BME280;16320;53.954;9.506;2023-02-19T08:36:03;101881.81;;;3.04;100.00
29315;BME280;16320;53.954;9.506;2023-02-19T08:39:07;101889.59;;;3.10;100.00
29315;BME280;16320;53.954;9.506;2023-02-19T08:42:12;101910.34;;;3.17;100.00
29315;BME280;16320;53.954;9.506;2023-02-19T08:45:17;101914.66;;;3.24;100.00
29315;BME280;16320;53.954;9.506;2023-02-19T08:48:22;101928.50;;;3.29;100.00
29315;BME280;16320;53.954;9.506;2023-02-19T08:51:26;101935.44;;;3.33;100.00
29315;BME280;16320;53.954;9.506;2023-02-19T08:54:30;101944.06;;;3.35;100.00
29315;BME280;16320;53.954;9.506;2023-02-19T08:57:35;101949.22;;;3.44;100.00
29315;BME280;16320;53.954;9.506;2023-02-19T09:00:43;101959.59;;;3.60;100.00
29315;BME280;16320;53.954;9.506;2023-02-19T09:03:47;101971.69;;;3.70;100.00
29315;BME280;16320;53.954;9.506;2023-02-19T09:06:52;101961.25;;;3.79;100.00
29315;BME280;16320;53.954;9.506;2023-02-19T09:09:56;101969.88;;;3.88;100.00
29315;BME280;16320;53.954;9.506;2023-02-19T09:13:01;101982.88;;;3.94;100.00
29315;BME280;16320;53.954;9.506;2023-02-19T09:16:06;101979.38;;;3.99;100.00
29315;BME280;16320;53.954;9.506;2023-02-19T09:19:10;101981.09;;;4.05;100.00
29315;BME280;16320;53.954;9.506;2023-02-19T09:22:15;101978.50;;;3.99;100.00
29315;BME280;16320;53.954;9.506;2023-02-19T09:25:19;101962.91;;;4.05;100.00
29315;BME280;16320;53.954;9.506;2023-02-19T09:28:24;101963.72;;;4.15;100.00
29315;BME280;16320;53.954;9.506;2023-02-19T09:31:29;101962.81;;;4.20;100.00
29315;BME280;16320;53.954;9.506;2023-02-19T09:34:33;101955.78;;;4.35;100.00
29315;BME280;16320;53.954;9.506;2023-02-19T09:37:38;101954.00;;;4.40;100.00
29315;BME280;16320;53.954;9.506;2023-02-19T09:40:42;101943.56;;;4.48;100.00
29315;BME280;16320;53.954;9.506;2023-02-19T09:43:46;101953.94;;;4.52;100.00
29315;BME280;16320;53.954;9.506;2023-02-19T09:46:52;101949.53;;;4.65;100.00
29315;BME280;16320;53.954;9.506;2023-02-19T09:50:05;101936.50;;;4.67;100.00
29315;BME280;16320;53.954;9.506;2023-02-19T09:53:18;101929.50;;;4.75;100.00
29315;BME280;16320;53.954;9.506;2023-02-19T09:56:25;101938.13;;;4.80;100.00
29315;BME280;16320;53.954;9.506;2023-02-19T09:59:39;101926.00;;;4.76;100.00
29315;BME280;16320;53.954;9.506;2023-02-19T10:02:46;101924.16;;;4.90;100.00
29315;BME280;16320;53.954;9.506;2023-02-19T10:05:53;101911.94;;;4.97;100.00
29315;BME280;16320;53.954;9.506;2023-02-19T10:09:23;101910.22;;;4.98;100.00
29315;BME280;16320;53.954;9.506;2023-02-19T10:12:31;101921.34;;;5.15;100.00
29315;BME280;16320;53.954;9.506;2023-02-19T10:15:43;101928.13;;;5.28;100.00
29315;BME280;16320;53.954;9.506;2023-02-19T10:18:49;101917.69;;;5.31;100.00
29315;BME280;16320;53.954;9.506;2023-02-19T10:21:54;101919.31;;;5.40;100.00
29315;BME280;16320;53.954;9.506;2023-02-19T10:24:59;101926.91;;;5.60;100.00
29315;BME280;16320;53.954;9.506;2023-02-19T10:28:11;101924.28;;;5.60;100.00
29315;BME280;16320;53.954;9.506;2023-02-19T10:31:23;101912.94;;;5.67;100.00
29315;BME280;16320;53.954;9.506;2023-02-19T10:34:28;101906.91;;;5.64;100.00
29315;BME280;16320;53.954;9.506;2023-02-19T10:37:33;101911.16;;;5.69;100.00
29315;BME280;16320;53.954;9.506;2023-02-19T10:40:44;101923.03;;;5.92;100.00
29315;BME280;16320;53.954;9.506;2023-02-19T10:47:21;101913.34;;;6.05;100.00
29315;BME280;16320;53.954;9.506;2023-02-19T10:50:31;101913.81;;;6.33;100.00
29315;BME280;16320;53.954;9.506;2023-02-19T10:53:44;101911.41;;;6.75;100.00
29315;BME280;16320;53.954;9.506;2023-02-19T10:56:49;101900.75;;;6.88;100.00
29315;BME280;16320;53.954;9.506;2023-02-19T10:59:57;101896.19;;;7.01;100.00
29315;BME280;16320;53.954;9.506;2023-02-19T11:03:20;101881.69;;;6.83;100.00
29315;BME280;16320;53.954;9.506;2023-02-19T11:06:25;101892.56;;;6.58;100.00
29315;BME280;16320;53.954;9.506;2023-02-19T11:09:37;101897.47;;;6.76;100.00
29315;BME280;16320;53.954;9.506;2023-02-19T11:12:47;101908.47;;;6.95;100.00
29315;BME280;16320;53.954;9.506;2023-02-19T11:15:54;101905.97;;;6.88;100.00
29315;BME280;16320;53.954;9.506;2023-02-19T11:18:59;101893.53;;;7.02;100.00
29315;BME280;16320;53.954;9.506;2023-02-19T11:25:48;101887.91;;;6.75;100.00
29315;BME280;16320;53.954;9.506;2023-02-19T11:29:10;101893.16;;;6.74;100.00
29315;BME280;16320;53.954;9.506;2023-02-19T11:35:24;101888.63;;;6.84;100.00
29315;BME280;16320;53.954;9.506;2023-02-19T11:38:29;101893.81;;;6.87;100.00
29315;BME280;16320;53.954;9.506;2023-02-19T11:55:17;101890.59;;;6.69;100.00
29315;BME280;16320;53.954;9.506;2023-02-19T12:08:47;101899.81;;;6.90;100.00
29315;BME280;16320;53.954;9.506;2023-02-19T12:16:09;101896.63;;;6.74;100.00
29315;BME280;16320;53.954;9.506;2023-02-19T12:19:39;101891.22;;;6.84;100.00
29315;BME280;16320;53.954;9.506;2023-02-19T12:27:17;101903.19;;;6.46;100.00
29315;BME280;16320;53.954;9.506;2023-02-19T12:30:34;101905.81;;;6.44;100.00
29315;BME280;16320;53.954;9.506;2023-02-19T12:44:37;101903.28;;;6.38;100.00
29315;BME280;16320;53.954;9.506;2023-02-19T12:47:58;101906.75;;;6.38;100.00
29315;BME280;16320;53.954;9.506;2023-02-19T12:54:41;101892.66;;;7.02;100.00
29315;BME280;16320;53.954;9.506;2023-02-19T12:57:47;101894.72;;;7.31;100.00
29315;BME280;16320;53.954;9.506;2023-02-19T13:00:54;101891.97;;;7.39;100.00
29315;BME280;16320;53.954;9.506;2023-02-19T13:04:37;101880.88;;;7.27;100.00
29315;BME280;16320;53.954;9.506;2023-02-19T13:11:42;101890.53;;;7.24;100.00
29315;BME280;16320;53.954;9.506;2023-02-19T13:17:59;101890.53;;;7.24;100.00
29315;BME280;16320;53.954;9.506;2023-02-19T13:21:05;101897.50;;;7.23;100.00
29315;BME280;16320;53.954;9.506;2023-02-19T13:24:30;101900.22;;;7.19;100.00
29315;BME280;16320;53.954;9.506;2023-02-19T13:39:14;101897.13;;;6.95;100.00
29315;BME280;16320;53.954;9.506;2023-02-19T13:42:33;101901.56;;;6.91;100.00
29315;BME280;16320;53.954;9.506;2023-02-19T13:45:40;101900.84;;;6.83;100.00
29315;BME280;16320;53.954;9.506;2023-02-19T13:48:45;101895.56;;;6.86;100.00
29315;BME280;16320;53.954;9.506;2023-02-19T13:51:55;101883.31;;;6.90;100.00
29315;BME280;16320;53.954;9.506;2023-02-19T14:05:09;101891.22;;;6.84;100.00
29315;BME280;16320;53.954;9.506;2023-02-19T14:15:51;101874.41;;;7.00;100.00
29315;BME280;16320;53.954;9.506;2023-02-19T14:18:56;101872.91;;;6.87;100.00
29315;BME280;16320;53.954;9.506;2023-02-19T14:22:00;101874.06;;;6.70;100.00
29315;BME280;16320;53.954;9.506;2023-02-19T14:31:39;101864.44;;;6.72;100.00
29315;BME280;16320;53.954;9.506;2023-02-19T14:34:48;101862.78;;;6.68;100.00
29315;BME280;16320;53.954;9.506;2023-02-19T14:37:54;101857.72;;;6.59;100.00
29315;BME280;16320;53.954;9.506;2023-02-19T14:40:59;101852.72;;;6.47;100.00
29315;BME280;16320;53.954;9.506;2023-02-19T14:44:13;101862.44;;;6.37;100.00
29315;BME280;16320;53.954;9.506;2023-02-19T14:47:24;101868.56;;;6.34;100.00
29315;BME280;16320;53.954;9.506;2023-02-19T14:50:30;101863.44;;;6.28;100.00
29315;BME280;16320;53.954;9.506;2023-02-19T14:53:40;101867.00;;;6.24;100.00
29315;BME280;16320;53.954;9.506;2023-02-19T14:56:50;101873.94;;;6.23;100.00
29315;BME280;16320;53.954;9.506;2023-02-19T14:59:59;101875.66;;;6.26;100.00
29315;BME280;16320;53.954;9.506;2023-02-19T15:03:05;101870.56;;;6.17;100.00
29315;BME280;16320;53.954;9.506;2023-02-19T15:06:15;101872.34;;;6.15;100.00
29315;BME280;16320;53.954;9.506;2023-02-19T15:09:35;101865.47;;;6.08;100.00
29315;BME280;16320;53.954;9.506;2023-02-19T15:13:02;101881.22;;;6.01;100.00
29315;BME280;16320;53.954;9.506;2023-02-19T15:16:08;101896.88;;;6.01;100.00
29315;BME280;16320;53.954;9.506;2023-02-19T15:19:15;101884.72;;;6.00;100.00
29315;BME280;16320;53.954;9.506;2023-02-19T15:22:23;101877.84;;;5.93;100.00
29315;BME280;16320;53.954;9.506;2023-02-19T15:25:37;101898.72;;;5.92;100.00
29315;BME280;16320;53.954;9.506;2023-02-19T15:28:42;101917.88;;;5.89;100.00
29315;BME280;16320;53.954;9.506;2023-02-19T15:31:51;101920.44;;;5.92;100.00
29315;BME280;16320;53.954;9.506;2023-02-19T15:34:59;101923.09;;;5.89;100.00
29315;BME280;16320;53.954;9.506;2023-02-19T15:38:10;101935.31;;;5.84;100.00
29315;BME280;16320;53.954;9.506;2023-02-19T15:41:21;101942.41;;;5.73;100.00
29315;BME280;16320;53.954;9.506;2023-02-19T15:50:58;101951.19;;;5.65;100.00
29315;BME280;16320;53.954;9.506;2023-02-19T15:57:35;101944.25;;;5.64;100.00
29315;BME280;16320;53.954;9.506;2023-02-19T16:03:55;101970.38;;;5.57;100.00
29315;BME280;16320;53.954;9.506;2023-02-19T16:07:01;101972.19;;;5.53;100.00
29315;BME280;16320;53.954;9.506;2023-02-19T16:10:22;101980.03;;;5.48;100.00
29315;BME280;16320;53.954;9.506;2023-02-19T16:13:31;101983.59;;;5.43;100.00
29315;BME280;16320;53.954;9.506;2023-02-19T16:16:39;101988.81;;;5.40;100.00
29315;BME280;16320;53.954;9.506;2023-02-19T16:19:58;101987.13;;;5.34;100.00
29315;BME280;16320;53.954;9.506;2023-02-19T16:23:15;101979.31;;;5.32;100.00
29315;BME280;16320;53.954;9.506;2023-02-19T16:26:24;101984.56;;;5.29;100.00
29315;BME280;16320;53.954;9.506;2023-02-19T16:29:31;101990.69;;;5.24;100.00
29315;BME280;16320;53.954;9.506;2023-02-19T16:32:36;101995.94;;;5.21;100.00
29315;BME280;16320;53.954;9.506;2023-02-19T16:35:40;102002.94;;;5.16;100.00
29315;BME280;16320;53.954;9.506;2023-02-19T16:39:21;102016.00;;;5.09;100.00
29315;BME280;16320;53.954;9.506;2023-02-19T16:42:25;102013.41;;;5.08;100.00
29315;BME280;16320;53.954;9.506;2023-02-19T16:45:30;102021.22;;;5.08;100.00
29315;BME280;16320;53.954;9.506;2023-02-19T16:48:35;102022.16;;;4.99;100.00
29315;BME280;16320;53.954;9.506;2023-02-19T16:51:39;102019.59;;;4.94;100.00
29315;BME280;16320;53.954;9.506;2023-02-19T16:54:44;102023.94;;;4.94;100.00
29315;BME280;16320;53.954;9.506;2023-02-19T16:57:50;102023.94;;;4.94;100.00
29315;BME280;16320;53.954;9.506;2023-02-19T17:00:54;102032.66;;;4.87;100.00
29315;BME280;16320;53.954;9.506;2023-02-19T17:04:07;102025.75;;;4.84;100.00
29315;BME280;16320;53.954;9.506;2023-02-19T17:07:16;102024.84;;;4.85;100.00
29315;BME280;16320;53.954;9.506;2023-02-19T17:10:25;102021.41;;;4.86;100.00
29315;BME280;16320;53.954;9.506;2023-02-19T17:13:29;102024.00;;;4.85;100.00
29315;BME280;16320;53.954;9.506;2023-02-19T17:16:34;102035.28;;;4.82;100.00
29315;BME280;16320;53.954;9.506;2023-02-19T17:19:43;102035.28;;;4.82;100.00
29315;BME280;16320;53.954;9.506;2023-02-19T17:22:47;102042.25;;;4.80;100.00
29315;BME280;16320;53.954;9.506;2023-02-19T17:25:52;102042.25;;;4.80;100.00
29315;BME280;16320;53.954;9.506;2023-02-19T17:29:03;102046.63;;;4.76;100.00
29315;BME280;16320;53.954;9.506;2023-02-19T17:32:07;102049.22;;;4.80;100.00
29315;BME280;16320;53.954;9.506;2023-02-19T17:35:12;102055.28;;;4.75;100.00
29315;BME280;16320;53.954;9.506;2023-02-19T17:38:17;102077.03;;;4.73;100.00
29315;BME280;16320;53.954;9.506;2023-02-19T17:41:21;102074.44;;;4.71;100.00
29315;BME280;16320;53.954;9.506;2023-02-19T17:44:25;102063.13;;;4.69;100.00
29315;BME280;16320;53.954;9.506;2023-02-19T17:47:30;102073.59;;;4.65;100.00
29315;BME280;16320;53.954;9.506;2023-02-19T17:50:34;102076.16;;;4.66;100.00
29315;BME280;16320;53.954;9.506;2023-02-19T17:53:39;102073.63;;;4.62;100.00
29315;BME280;16320;53.954;9.506;2023-02-19T17:56:44;102078.75;;;4.66;100.00
29315;BME280;16320;53.954;9.506;2023-02-19T17:59:51;102066.69;;;4.56;100.00
29315;BME280;16320;53.954;9.506;2023-02-19T18:02:55;102064.91;;;4.59;100.00
29315;BME280;16320;53.954;9.506;2023-02-19T18:06:00;102071.88;;;4.57;100.00
29315;BME280;16320;53.954;9.506;2023-02-19T18:09:04;102081.41;;;4.62;100.00
29315;BME280;16320;53.954;9.506;2023-02-19T18:12:08;102070.13;;;4.59;100.00
29315;BME280;16320;53.954;9.506;2023-02-19T18:15:23;102071.84;;;4.64;100.00
29315;BME280;16320;53.954;9.506;2023-02-19T18:18:28;102060.59;;;4.63;100.00
29315;BME280;16320;53.954;9.506;2023-02-19T18:21:33;102060.53;;;4.68;100.00
29315;BME280;16320;53.954;9.506;2023-02-19T18:24:47;102046.69;;;4.64;100.00
29315;BME280;16320;53.954;9.506;2023-02-19T18:27:52;102031.06;;;4.66;100.00
29315;BME280;16320;53.954;9.506;2023-02-19T18:30:56;102033.66;;;4.69;100.00
29315;BME280;16320;53.954;9.506;2023-02-19T18:34:01;102027.59;;;4.70;100.00
29315;BME280;16320;53.954;9.506;2023-02-19T18:37:06;102016.28;;;4.68;100.00
29315;BME280;16320;53.954;9.506;2023-02-19T18:40:11;102016.28;;;4.71;100.00
29315;BME280;16320;53.954;9.506;2023-02-19T18:43:15;102018.03;;;4.66;100.00